Kansas City, Missouri
Current Conditions -  °F | °C
As of 10:18 AM on Thursday 18 Dec 2014 (Local Time) from KMKC Reporting Station
Light Snow Light Snow  
Wind Chill: 24°   Ceiling: 700
Heat Index: 31°   Visibility: 3mi
Dew Point: 28°   Wind: 7mph
Humidity: 89%   Direction: 70°ENE
Pressure: 30.25"   Gusts: NA
Location:  39.1°N, 94.58°W
Report Text: KMKC 181618Z 07006KT 3SM -SN BR OVC007 M01/M02 A3025 RMK AO2 P0000 T10061022
Loading
Personal Weather Stations






























Interactive Weather Map New forecast layout! Learn more

10-Day Weather Forecast

Advertisements
Track Severe Weather on mobile